sensor_id;sensor_type;location;lat;lon;timestamp;P1;durP1;ratioP1;P2;durP2;ratioP2
75680;SDS011;64294;49.176;16.626;2023-11-21T00:01:32;24.83;;;14.68;;
75680;SDS011;64294;49.176;16.626;2023-11-21T00:03:57;30.85;;;14.57;;
75680;SDS011;64294;49.176;16.626;2023-11-21T00:06:23;28.77;;;15.13;;
75680;SDS011;64294;49.176;16.626;2023-11-21T00:08:48;31.90;;;14.48;;
75680;SDS011;64294;49.176;16.626;2023-11-21T00:11:13;29.45;;;14.98;;
75680;SDS011;64294;49.176;16.626;2023-11-21T00:13:39;32.55;;;14.80;;
75680;SDS011;64294;49.176;16.626;2023-11-21T00:16:05;26.17;;;14.07;;
75680;SDS011;64294;49.176;16.626;2023-11-21T00:18:32;30.10;;;14.57;;
75680;SDS011;64294;49.176;16.626;2023-11-21T00:20:57;27.73;;;15.30;;
75680;SDS011;64294;49.176;16.626;2023-11-21T00:23:24;28.40;;;15.00;;
75680;SDS011;64294;49.176;16.626;2023-11-21T00:25:49;26.23;;;14.13;;
75680;SDS011;64294;49.176;16.626;2023-11-21T00:28:14;28.83;;;14.02;;
75680;SDS011;64294;49.176;16.626;2023-11-21T00:30:40;28.92;;;15.02;;
75680;SDS011;64294;49.176;16.626;2023-11-21T00:33:05;24.35;;;13.60;;
75680;SDS011;64294;49.176;16.626;2023-11-21T00:35:31;25.25;;;13.90;;
75680;SDS011;64294;49.176;16.626;2023-11-21T00:37:56;29.48;;;14.25;;
75680;SDS011;64294;49.176;16.626;2023-11-21T00:40:22;24.08;;;13.07;;
75680;SDS011;64294;49.176;16.626;2023-11-21T00:42:48;23.98;;;13.98;;
75680;SDS011;64294;49.176;16.626;2023-11-21T00:45:13;27.27;;;13.88;;
75680;SDS011;64294;49.176;16.626;2023-11-21T00:47:40;28.38;;;14.05;;
75680;SDS011;64294;49.176;16.626;2023-11-21T00:50:05;28.23;;;14.82;;
75680;SDS011;64294;49.176;16.626;2023-11-21T00:52:34;24.45;;;13.70;;
75680;SDS011;64294;49.176;16.626;2023-11-21T00:55:01;24.13;;;13.20;;
75680;SDS011;64294;49.176;16.626;2023-11-21T00:57:28;28.25;;;12.73;;
75680;SDS011;64294;49.176;16.626;2023-11-21T00:59:53;29.58;;;14.50;;
75680;SDS011;64294;49.176;16.626;2023-11-21T01:02:19;26.58;;;13.13;;
75680;SDS011;64294;49.176;16.626;2023-11-21T01:04:44;22.17;;;12.40;;
75680;SDS011;64294;49.176;16.626;2023-11-21T01:07:10;22.05;;;11.60;;
75680;SDS011;64294;49.176;16.626;2023-11-21T01:09:38;18.58;;;11.13;;
75680;SDS011;64294;49.176;16.626;2023-11-21T01:12:04;19.67;;;10.20;;
75680;SDS011;64294;49.176;16.626;2023-11-21T01:14:29;21.98;;;12.20;;
75680;SDS011;64294;49.176;16.626;2023-11-21T01:16:55;25.95;;;12.18;;
75680;SDS011;64294;49.176;16.626;2023-11-21T01:19:20;22.75;;;12.27;;
75680;SDS011;64294;49.176;16.626;2023-11-21T01:21:45;18.73;;;11.27;;
75680;SDS011;64294;49.176;16.626;2023-11-21T01:24:12;21.27;;;11.10;;
75680;SDS011;64294;49.176;16.626;2023-11-21T01:26:37;23.88;;;11.23;;
75680;SDS011;64294;49.176;16.626;2023-11-21T01:29:03;25.73;;;11.88;;
75680;SDS011;64294;49.176;16.626;2023-11-21T01:31:28;25.17;;;11.35;;
75680;SDS011;64294;49.176;16.626;2023-11-21T01:33:56;20.95;;;11.75;;
75680;SDS011;64294;49.176;16.626;2023-11-21T01:36:29;23.55;;;12.23;;
75680;SDS011;64294;49.176;16.626;2023-11-21T01:39:00;22.40;;;11.82;;
75680;SDS011;64294;49.176;16.626;2023-11-21T01:41:26;22.75;;;12.20;;
75680;SDS011;64294;49.176;16.626;2023-11-21T01:43:52;23.05;;;12.93;;
75680;SDS011;64294;49.176;16.626;2023-11-21T01:46:19;24.23;;;12.45;;
75680;SDS011;64294;49.176;16.626;2023-11-21T01:48:45;22.83;;;11.85;;
75680;SDS011;64294;49.176;16.626;2023-11-21T01:51:11;25.38;;;11.35;;
75680;SDS011;64294;49.176;16.626;2023-11-21T01:53:37;23.60;;;11.73;;
75680;SDS011;64294;49.176;16.626;2023-11-21T01:58:38;18.85;;;10.52;;
75680;SDS011;64294;49.176;16.626;2023-11-21T02:01:04;22.45;;;11.50;;
75680;SDS011;64294;49.176;16.626;2023-11-21T02:03:30;25.80;;;13.35;;
75680;SDS011;64294;49.176;16.626;2023-11-21T02:05:56;28.52;;;12.85;;
75680;SDS011;64294;49.176;16.626;2023-11-21T02:08:21;28.23;;;12.90;;
75680;SDS011;64294;49.176;16.626;2023-11-21T02:10:47;22.38;;;12.52;;
75680;SDS011;64294;49.176;16.626;2023-11-21T02:13:12;27.42;;;13.57;;
75680;SDS011;64294;49.176;16.626;2023-11-21T02:15:41;25.45;;;12.98;;
75680;SDS011;64294;49.176;16.626;2023-11-21T02:18:07;24.30;;;12.57;;
75680;SDS011;64294;49.176;16.626;2023-11-21T02:20:32;27.75;;;12.82;;
75680;SDS011;64294;49.176;16.626;2023-11-21T02:23:00;25.90;;;12.23;;
75680;SDS011;64294;49.176;16.626;2023-11-21T02:28:01;23.02;;;12.85;;
75680;SDS011;64294;49.176;16.626;2023-11-21T02:30:28;25.65;;;12.50;;
75680;SDS011;64294;49.176;16.626;2023-11-21T02:32:55;24.02;;;12.80;;
75680;SDS011;64294;49.176;16.626;2023-11-21T02:35:23;26.00;;;11.90;;
75680;SDS011;64294;49.176;16.626;2023-11-21T02:37:51;19.92;;;11.70;;
75680;SDS011;64294;49.176;16.626;2023-11-21T02:40:19;22.33;;;12.10;;
75680;SDS011;64294;49.176;16.626;2023-11-21T02:42:50;21.25;;;11.77;;
75680;SDS011;64294;49.176;16.626;2023-11-21T02:45:19;24.65;;;11.50;;
75680;SDS011;64294;49.176;16.626;2023-11-21T02:47:46;21.60;;;11.10;;
75680;SDS011;64294;49.176;16.626;2023-11-21T02:50:11;25.15;;;12.25;;
75680;SDS011;64294;49.176;16.626;2023-11-21T02:52:37;19.88;;;11.07;;
75680;SDS011;64294;49.176;16.626;2023-11-21T02:55:03;19.98;;;10.82;;
75680;SDS011;64294;49.176;16.626;2023-11-21T02:57:29;21.08;;;12.02;;
75680;SDS011;64294;49.176;16.626;2023-11-21T02:59:55;21.95;;;11.70;;
75680;SDS011;64294;49.176;16.626;2023-11-21T03:02:20;18.27;;;11.02;;
75680;SDS011;64294;49.176;16.626;2023-11-21T03:04:47;25.38;;;10.95;;
75680;SDS011;64294;49.176;16.626;2023-11-21T03:07:14;18.80;;;10.15;;
75680;SDS011;64294;49.176;16.626;2023-11-21T03:09:39;20.13;;;11.02;;
75680;SDS011;64294;49.176;16.626;2023-11-21T03:12:05;23.27;;;11.80;;
75680;SDS011;64294;49.176;16.626;2023-11-21T03:14:31;22.77;;;12.02;;
75680;SDS011;64294;49.176;16.626;2023-11-21T03:16:56;21.52;;;11.40;;
75680;SDS011;64294;49.176;16.626;2023-11-21T03:19:22;24.77;;;12.00;;
75680;SDS011;64294;49.176;16.626;2023-11-21T03:21:48;23.02;;;11.43;;
75680;SDS011;64294;49.176;16.626;2023-11-21T03:24:13;22.48;;;11.80;;
75680;SDS011;64294;49.176;16.626;2023-11-21T03:26:44;23.80;;;12.48;;
75680;SDS011;64294;49.176;16.626;2023-11-21T03:29:09;22.60;;;11.70;;
75680;SDS011;64294;49.176;16.626;2023-11-21T03:31:35;21.77;;;10.55;;
75680;SDS011;64294;49.176;16.626;2023-11-21T03:34:01;22.42;;;13.05;;
75680;SDS011;64294;49.176;16.626;2023-11-21T03:36:26;24.15;;;11.90;;
75680;SDS011;64294;49.176;16.626;2023-11-21T03:38:52;27.73;;;12.45;;
75680;SDS011;64294;49.176;16.626;2023-11-21T03:41:17;25.95;;;12.05;;
75680;SDS011;64294;49.176;16.626;2023-11-21T03:43:42;26.10;;;12.20;;
75680;SDS011;64294;49.176;16.626;2023-11-21T03:46:08;23.70;;;11.93;;
75680;SDS011;64294;49.176;16.626;2023-11-21T03:48:33;21.85;;;11.23;;
75680;SDS011;64294;49.176;16.626;2023-11-21T03:50:59;24.73;;;11.18;;
75680;SDS011;64294;49.176;16.626;2023-11-21T03:53:24;20.73;;;11.40;;
75680;SDS011;64294;49.176;16.626;2023-11-21T03:55:49;20.67;;;11.77;;
75680;SDS011;64294;49.176;16.626;2023-11-21T03:58:15;20.10;;;10.77;;
75680;SDS011;64294;49.176;16.626;2023-11-21T04:00:40;21.27;;;11.18;;
75680;SDS011;64294;49.176;16.626;2023-11-21T04:03:06;20.70;;;11.18;;
75680;SDS011;64294;49.176;16.626;2023-11-21T04:05:31;16.65;;;10.07;;
75680;SDS011;64294;49.176;16.626;2023-11-21T04:07:57;19.70;;;9.95;;
75680;SDS011;64294;49.176;16.626;2023-11-21T04:10:23;19.38;;;10.43;;
75680;SDS011;64294;49.176;16.626;2023-11-21T04:12:48;21.75;;;9.80;;
75680;SDS011;64294;49.176;16.626;2023-11-21T04:15:14;18.70;;;11.02;;
75680;SDS011;64294;49.176;16.626;2023-11-21T04:17:40;20.10;;;11.18;;
75680;SDS011;64294;49.176;16.626;2023-11-21T04:20:07;23.58;;;11.02;;
75680;SDS011;64294;49.176;16.626;2023-11-21T04:22:40;20.85;;;10.68;;
75680;SDS011;64294;49.176;16.626;2023-11-21T04:25:11;20.65;;;9.55;;
75680;SDS011;64294;49.176;16.626;2023-11-21T04:27:44;17.33;;;9.38;;
75680;SDS011;64294;49.176;16.626;2023-11-21T04:30:11;24.05;;;10.95;;
75680;SDS011;64294;49.176;16.626;2023-11-21T04:32:37;22.13;;;11.50;;
75680;SDS011;64294;49.176;16.626;2023-11-21T04:35:07;23.90;;;11.20;;
75680;SDS011;64294;49.176;16.626;2023-11-21T04:37:33;22.33;;;11.43;;
75680;SDS011;64294;49.176;16.626;2023-11-21T04:40:02;20.70;;;10.63;;
75680;SDS011;64294;49.176;16.626;2023-11-21T04:42:32;23.10;;;10.23;;
75680;SDS011;64294;49.176;16.626;2023-11-21T04:45:04;21.67;;;10.38;;
75680;SDS011;64294;49.176;16.626;2023-11-21T04:47:33;26.58;;;12.13;;
75680;SDS011;64294;49.176;16.626;2023-11-21T04:50:01;24.55;;;13.45;;
75680;SDS011;64294;49.176;16.626;2023-11-21T04:52:28;28.33;;;13.45;;
75680;SDS011;64294;49.176;16.626;2023-11-21T04:54:53;28.63;;;13.45;;
75680;SDS011;64294;49.176;16.626;2023-11-21T04:57:20;24.60;;;13.13;;
75680;SDS011;64294;49.176;16.626;2023-11-21T04:59:46;27.63;;;13.25;;
75680;SDS011;64294;49.176;16.626;2023-11-21T05:02:12;23.08;;;12.13;;
75680;SDS011;64294;49.176;16.626;2023-11-21T05:04:38;24.73;;;13.02;;
75680;SDS011;64294;49.176;16.626;2023-11-21T05:07:07;24.63;;;12.23;;
75680;SDS011;64294;49.176;16.626;2023-11-21T05:09:33;23.75;;;11.88;;
75680;SDS011;64294;49.176;16.626;2023-11-21T05:12:01;24.45;;;12.60;;
75680;SDS011;64294;49.176;16.626;2023-11-21T05:14:27;26.73;;;12.20;;
75680;SDS011;64294;49.176;16.626;2023-11-21T05:16:52;24.17;;;12.20;;
75680;SDS011;64294;49.176;16.626;2023-11-21T05:19:17;29.80;;;14.07;;
75680;SDS011;64294;49.176;16.626;2023-11-21T05:21:43;27.83;;;13.98;;
75680;SDS011;64294;49.176;16.626;2023-11-21T05:24:08;31.77;;;14.52;;
75680;SDS011;64294;49.176;16.626;2023-11-21T05:26:34;28.60;;;13.82;;
75680;SDS011;64294;49.176;16.626;2023-11-21T05:29:00;26.75;;;13.75;;
75680;SDS011;64294;49.176;16.626;2023-11-21T05:31:25;30.00;;;14.02;;
75680;SDS011;64294;49.176;16.626;2023-11-21T05:33:52;24.27;;;13.07;;
75680;SDS011;64294;49.176;16.626;2023-11-21T05:36:18;29.50;;;14.55;;
75680;SDS011;64294;49.176;16.626;2023-11-21T05:38:43;34.10;;;14.90;;
75680;SDS011;64294;49.176;16.626;2023-11-21T05:41:09;33.83;;;15.65;;
75680;SDS011;64294;49.176;16.626;2023-11-21T05:43:38;52.35;;;24.05;;
75680;SDS011;64294;49.176;16.626;2023-11-21T05:46:03;52.88;;;23.10;;
75680;SDS011;64294;49.176;16.626;2023-11-21T05:48:29;37.28;;;18.05;;
75680;SDS011;64294;49.176;16.626;2023-11-21T05:50:55;37.28;;;17.83;;
75680;SDS011;64294;49.176;16.626;2023-11-21T05:53:20;43.15;;;19.10;;
75680;SDS011;64294;49.176;16.626;2023-11-21T05:55:46;33.15;;;15.43;;
75680;SDS011;64294;49.176;16.626;2023-11-21T05:58:13;31.80;;;16.25;;
75680;SDS011;64294;49.176;16.626;2023-11-21T06:00:38;34.63;;;17.00;;
75680;SDS011;64294;49.176;16.626;2023-11-21T06:03:04;33.83;;;13.73;;
75680;SDS011;64294;49.176;16.626;2023-11-21T06:05:31;32.30;;;13.63;;
75680;SDS011;64294;49.176;16.626;2023-11-21T06:07:58;26.08;;;13.02;;
75680;SDS011;64294;49.176;16.626;2023-11-21T06:10:24;25.65;;;11.80;;
75680;SDS011;64294;49.176;16.626;2023-11-21T06:12:50;21.48;;;11.15;;
75680;SDS011;64294;49.176;16.626;2023-11-21T06:15:16;27.38;;;12.07;;
75680;SDS011;64294;49.176;16.626;2023-11-21T06:17:45;31.27;;;14.70;;
75680;SDS011;64294;49.176;16.626;2023-11-21T06:20:14;28.33;;;15.55;;
75680;SDS011;64294;49.176;16.626;2023-11-21T06:22:43;27.42;;;14.25;;
75680;SDS011;64294;49.176;16.626;2023-11-21T06:25:10;27.05;;;13.60;;
75680;SDS011;64294;49.176;16.626;2023-11-21T06:27:47;30.73;;;13.38;;
75680;SDS011;64294;49.176;16.626;2023-11-21T06:30:14;32.75;;;14.13;;
75680;SDS011;64294;49.176;16.626;2023-11-21T06:32:40;30.92;;;15.05;;
75680;SDS011;64294;49.176;16.626;2023-11-21T06:35:06;28.13;;;15.43;;
75680;SDS011;64294;49.176;16.626;2023-11-21T06:37:33;33.83;;;15.73;;
75680;SDS011;64294;49.176;16.626;2023-11-21T06:39:59;28.30;;;14.85;;
75680;SDS011;64294;49.176;16.626;2023-11-21T06:42:25;25.55;;;13.13;;
75680;SDS011;64294;49.176;16.626;2023-11-21T06:44:51;20.92;;;12.02;;
75680;SDS011;64294;49.176;16.626;2023-11-21T06:47:18;20.40;;;10.75;;
75680;SDS011;64294;49.176;16.626;2023-11-21T06:49:45;20.27;;;10.40;;
75680;SDS011;64294;49.176;16.626;2023-11-21T06:52:13;20.25;;;10.32;;
75680;SDS011;64294;49.176;16.626;2023-11-21T06:54:38;20.50;;;10.52;;
75680;SDS011;64294;49.176;16.626;2023-11-21T06:57:04;19.77;;;10.70;;
75680;SDS011;64294;49.176;16.626;2023-11-21T06:59:30;19.30;;;9.52;;
75680;SDS011;64294;49.176;16.626;2023-11-21T07:01:55;23.13;;;10.45;;
75680;SDS011;64294;49.176;16.626;2023-11-21T07:04:21;22.65;;;10.65;;
75680;SDS011;64294;49.176;16.626;2023-11-21T07:06:46;20.98;;;10.15;;
75680;SDS011;64294;49.176;16.626;2023-11-21T07:09:11;18.23;;;10.55;;
75680;SDS011;64294;49.176;16.626;2023-11-21T07:11:37;20.92;;;10.43;;
75680;SDS011;64294;49.176;16.626;2023-11-21T07:14:04;20.35;;;10.23;;
75680;SDS011;64294;49.176;16.626;2023-11-21T07:16:35;25.48;;;10.45;;
75680;SDS011;64294;49.176;16.626;2023-11-21T07:19:03;17.08;;;8.95;;
75680;SDS011;64294;49.176;16.626;2023-11-21T07:21:31;17.13;;;9.60;;
75680;SDS011;64294;49.176;16.626;2023-11-21T07:24:00;15.32;;;9.32;;
75680;SDS011;64294;49.176;16.626;2023-11-21T07:26:26;16.92;;;9.02;;
75680;SDS011;64294;49.176;16.626;2023-11-21T07:28:52;14.05;;;9.18;;
75680;SDS011;64294;49.176;16.626;2023-11-21T07:31:18;15.88;;;8.60;;
75680;SDS011;64294;49.176;16.626;2023-11-21T07:33:44;16.67;;;8.40;;
75680;SDS011;64294;49.176;16.626;2023-11-21T07:36:12;19.08;;;9.27;;
75680;SDS011;64294;49.176;16.626;2023-11-21T07:38:38;15.10;;;8.82;;
75680;SDS011;64294;49.176;16.626;2023-11-21T07:41:04;20.73;;;8.85;;
75680;SDS011;64294;49.176;16.626;2023-11-21T07:43:30;17.00;;;8.82;;
75680;SDS011;64294;49.176;16.626;2023-11-21T07:46:00;16.58;;;9.23;;
75680;SDS011;64294;49.176;16.626;2023-11-21T07:48:27;17.42;;;9.35;;
75680;SDS011;64294;49.176;16.626;2023-11-21T07:50:53;18.55;;;9.88;;
75680;SDS011;64294;49.176;16.626;2023-11-21T07:53:19;20.13;;;10.77;;
75680;SDS011;64294;49.176;16.626;2023-11-21T07:55:44;26.67;;;11.70;;
75680;SDS011;64294;49.176;16.626;2023-11-21T07:58:12;27.70;;;13.05;;
75680;SDS011;64294;49.176;16.626;2023-11-21T08:00:38;27.02;;;13.48;;
75680;SDS011;64294;49.176;16.626;2023-11-21T08:03:04;29.52;;;15.50;;
75680;SDS011;64294;49.176;16.626;2023-11-21T08:05:30;36.75;;;15.43;;
75680;SDS011;64294;49.176;16.626;2023-11-21T08:07:56;32.55;;;15.43;;
75680;SDS011;64294;49.176;16.626;2023-11-21T08:10:22;36.35;;;19.00;;
75680;SDS011;64294;49.176;16.626;2023-11-21T08:12:47;38.03;;;18.30;;
75680;SDS011;64294;49.176;16.626;2023-11-21T08:15:13;36.42;;;19.30;;
75680;SDS011;64294;49.176;16.626;2023-11-21T08:17:39;36.40;;;19.30;;
75680;SDS011;64294;49.176;16.626;2023-11-21T08:20:05;28.67;;;15.38;;
75680;SDS011;64294;49.176;16.626;2023-11-21T08:22:31;28.42;;;13.07;;
75680;SDS011;64294;49.176;16.626;2023-11-21T08:24:57;26.60;;;12.43;;
75680;SDS011;64294;49.176;16.626;2023-11-21T08:27:23;24.60;;;11.70;;
75680;SDS011;64294;49.176;16.626;2023-11-21T08:29:48;19.88;;;10.68;;
75680;SDS011;64294;49.176;16.626;2023-11-21T08:32:14;23.63;;;11.52;;
75680;SDS011;64294;49.176;16.626;2023-11-21T08:34:40;26.75;;;10.50;;
75680;SDS011;64294;49.176;16.626;2023-11-21T08:37:08;23.67;;;11.50;;
75680;SDS011;64294;49.176;16.626;2023-11-21T08:39:33;19.80;;;11.32;;
75680;SDS011;64294;49.176;16.626;2023-11-21T08:41:58;25.92;;;12.13;;
75680;SDS011;64294;49.176;16.626;2023-11-21T08:44:24;20.60;;;12.07;;
75680;SDS011;64294;49.176;16.626;2023-11-21T08:46:50;17.05;;;11.95;;
75680;SDS011;64294;49.176;16.626;2023-11-21T08:49:15;20.55;;;10.35;;
75680;SDS011;64294;49.176;16.626;2023-11-21T08:51:40;16.38;;;10.30;;
75680;SDS011;64294;49.176;16.626;2023-11-21T08:54:06;18.98;;;9.02;;
75680;SDS011;64294;49.176;16.626;2023-11-21T08:56:33;14.68;;;8.80;;
75680;SDS011;64294;49.176;16.626;2023-11-21T08:59:00;13.98;;;8.43;;
75680;SDS011;64294;49.176;16.626;2023-11-21T09:01:27;16.35;;;8.75;;
75680;SDS011;64294;49.176;16.626;2023-11-21T09:03:54;16.00;;;8.55;;
75680;SDS011;64294;49.176;16.626;2023-11-21T09:06:19;15.75;;;8.43;;
75680;SDS011;64294;49.176;16.626;2023-11-21T09:08:45;21.00;;;8.93;;
75680;SDS011;64294;49.176;16.626;2023-11-21T09:11:10;14.50;;;7.40;;
75680;SDS011;64294;49.176;16.626;2023-11-21T09:13:36;13.65;;;7.22;;
75680;SDS011;64294;49.176;16.626;2023-11-21T09:16:01;11.20;;;7.10;;
75680;SDS011;64294;49.176;16.626;2023-11-21T09:18:27;14.73;;;7.57;;
75680;SDS011;64294;49.176;16.626;2023-11-21T09:20:52;14.00;;;6.72;;
75680;SDS011;64294;49.176;16.626;2023-11-21T09:23:18;13.38;;;6.30;;
75680;SDS011;64294;49.176;16.626;2023-11-21T09:25:43;15.20;;;6.38;;
75680;SDS011;64294;49.176;16.626;2023-11-21T09:28:11;13.95;;;6.03;;
75680;SDS011;64294;49.176;16.626;2023-11-21T09:30:37;14.05;;;5.90;;
75680;SDS011;64294;49.176;16.626;2023-11-21T09:33:03;11.45;;;5.53;;
75680;SDS011;64294;49.176;16.626;2023-11-21T09:35:35;11.38;;;5.75;;
75680;SDS011;64294;49.176;16.626;2023-11-21T09:38:04;10.70;;;5.80;;
75680;SDS011;64294;49.176;16.626;2023-11-21T09:40:36;11.25;;;5.93;;
75680;SDS011;64294;49.176;16.626;2023-11-21T09:43:05;16.42;;;5.90;;
75680;SDS011;64294;49.176;16.626;2023-11-21T09:45:36;13.80;;;6.00;;
75680;SDS011;64294;49.176;16.626;2023-11-21T09:48:04;13.30;;;5.75;;
75680;SDS011;64294;49.176;16.626;2023-11-21T09:50:31;10.32;;;5.97;;
75680;SDS011;64294;49.176;16.626;2023-11-21T09:55:46;13.30;;;5.85;;
75680;SDS011;64294;49.176;16.626;2023-11-21T09:58:17;9.65;;;5.53;;
75680;SDS011;64294;49.176;16.626;2023-11-21T10:00:45;11.98;;;6.45;;
75680;SDS011;64294;49.176;16.626;2023-11-21T10:03:11;11.38;;;6.10;;
75680;SDS011;64294;49.176;16.626;2023-11-21T10:05:38;13.07;;;6.18;;
75680;SDS011;64294;49.176;16.626;2023-11-21T10:08:07;11.88;;;6.50;;
75680;SDS011;64294;49.176;16.626;2023-11-21T10:10:37;9.98;;;6.13;;
75680;SDS011;64294;49.176;16.626;2023-11-21T10:13:10;11.90;;;6.03;;
75680;SDS011;64294;49.176;16.626;2023-11-21T10:15:40;12.60;;;6.63;;
75680;SDS011;64294;49.176;16.626;2023-11-21T10:18:13;14.65;;;6.63;;
75680;SDS011;64294;49.176;16.626;2023-11-21T10:20:40;11.02;;;5.93;;
75680;SDS011;64294;49.176;16.626;2023-11-21T10:23:05;11.02;;;6.07;;
75680;SDS011;64294;49.176;16.626;2023-11-21T10:25:32;13.60;;;7.00;;
75680;SDS011;64294;49.176;16.626;2023-11-21T10:27:58;16.60;;;6.72;;
75680;SDS011;64294;49.176;16.626;2023-11-21T10:30:39;15.27;;;7.57;;
75680;SDS011;64294;49.176;16.626;2023-11-21T10:33:05;17.05;;;9.25;;
75680;SDS011;64294;49.176;16.626;2023-11-21T10:35:44;25.00;;;12.60;;
75680;SDS011;64294;49.176;16.626;2023-11-21T10:38:17;25.85;;;14.60;;
75680;SDS011;64294;49.176;16.626;2023-11-21T10:40:43;33.55;;;16.40;;
75680;SDS011;64294;49.176;16.626;2023-11-21T10:43:09;29.60;;;17.00;;
75680;SDS011;64294;49.176;16.626;2023-11-21T10:45:36;32.83;;;17.02;;
75680;SDS011;64294;49.176;16.626;2023-11-21T10:48:04;28.08;;;17.80;;
75680;SDS011;64294;49.176;16.626;2023-11-21T10:50:35;27.38;;;13.88;;
75680;SDS011;64294;49.176;16.626;2023-11-21T10:53:05;28.48;;;14.38;;
75680;SDS011;64294;49.176;16.626;2023-11-21T10:55:31;21.05;;;12.68;;
75680;SDS011;64294;49.176;16.626;2023-11-21T10:58:03;22.80;;;12.73;;
75680;SDS011;64294;49.176;16.626;2023-11-21T11:00:31;26.30;;;13.43;;
75680;SDS011;64294;49.176;16.626;2023-11-21T11:02:58;30.05;;;14.93;;
75680;SDS011;64294;49.176;16.626;2023-11-21T11:05:25;26.80;;;16.20;;
75680;SDS011;64294;49.176;16.626;2023-11-21T11:08:03;21.23;;;11.73;;
75680;SDS011;64294;49.176;16.626;2023-11-21T11:10:31;17.23;;;10.27;;
75680;SDS011;64294;49.176;16.626;2023-11-21T11:12:57;22.83;;;10.27;;
75680;SDS011;64294;49.176;16.626;2023-11-21T11:15:24;20.80;;;10.43;;
75680;SDS011;64294;49.176;16.626;2023-11-21T11:17:50;16.50;;;10.00;;
75680;SDS011;64294;49.176;16.626;2023-11-21T11:20:17;20.50;;;10.63;;
75680;SDS011;64294;49.176;16.626;2023-11-21T11:22:50;23.10;;;11.27;;
75680;SDS011;64294;49.176;16.626;2023-11-21T11:28:27;19.95;;;10.80;;
75680;SDS011;64294;49.176;16.626;2023-11-21T11:33:53;19.58;;;9.98;;
75680;SDS011;64294;49.176;16.626;2023-11-21T11:36:48;19.30;;;10.57;;
75680;SDS011;64294;49.176;16.626;2023-11-21T11:39:29;20.40;;;10.38;;
75680;SDS011;64294;49.176;16.626;2023-11-21T11:41:56;20.58;;;10.57;;
75680;SDS011;64294;49.176;16.626;2023-11-21T11:47:35;15.43;;;9.10;;
75680;SDS011;64294;49.176;16.626;2023-11-21T11:50:09;14.43;;;8.73;;
75680;SDS011;64294;49.176;16.626;2023-11-21T11:55:14;14.23;;;8.02;;
75680;SDS011;64294;49.176;16.626;2023-11-21T11:57:44;16.33;;;7.57;;
75680;SDS011;64294;49.176;16.626;2023-11-21T12:00:18;12.60;;;7.35;;
75680;SDS011;64294;49.176;16.626;2023-11-21T12:02:49;16.30;;;8.48;;
75680;SDS011;64294;49.176;16.626;2023-11-21T12:05:22;15.88;;;8.52;;
75680;SDS011;64294;49.176;16.626;2023-11-21T12:07:52;16.60;;;8.85;;
75680;SDS011;64294;49.176;16.626;2023-11-21T12:10:40;16.35;;;9.07;;
75680;SDS011;64294;49.176;16.626;2023-11-21T12:13:11;18.33;;;8.73;;
75680;SDS011;64294;49.176;16.626;2023-11-21T12:15:38;17.33;;;8.97;;
75680;SDS011;64294;49.176;16.626;2023-11-21T12:18:05;19.42;;;9.38;;
75680;SDS011;64294;49.176;16.626;2023-11-21T12:20:31;21.42;;;9.52;;
75680;SDS011;64294;49.176;16.626;2023-11-21T12:22:57;19.08;;;8.93;;
75680;SDS011;64294;49.176;16.626;2023-11-21T12:25:28;15.25;;;9.00;;
75680;SDS011;64294;49.176;16.626;2023-11-21T12:27:56;18.45;;;8.90;;
75680;SDS011;64294;49.176;16.626;2023-11-21T12:30:23;17.42;;;8.85;;
75680;SDS011;64294;49.176;16.626;2023-11-21T12:32:53;17.15;;;9.10;;
75680;SDS011;64294;49.176;16.626;2023-11-21T12:35:21;22.38;;;8.70;;
75680;SDS011;64294;49.176;16.626;2023-11-21T12:37:49;18.48;;;9.68;;
75680;SDS011;64294;49.176;16.626;2023-11-21T12:40:17;15.35;;;8.45;;
75680;SDS011;64294;49.176;16.626;2023-11-21T12:42:46;22.95;;;8.98;;
75680;SDS011;64294;49.176;16.626;2023-11-21T12:47:45;17.88;;;7.22;;
75680;SDS011;64294;49.176;16.626;2023-11-21T12:50:12;10.63;;;5.40;;
75680;SDS011;64294;49.176;16.626;2023-11-21T12:52:41;12.43;;;5.32;;
75680;SDS011;64294;49.176;16.626;2023-11-21T12:55:12;12.20;;;5.32;;
75680;SDS011;64294;49.176;16.626;2023-11-21T12:57:43;10.35;;;5.25;;
75680;SDS011;64294;49.176;16.626;2023-11-21T13:00:15;9.63;;;4.97;;
75680;SDS011;64294;49.176;16.626;2023-11-21T13:02:56;9.48;;;5.53;;
75680;SDS011;64294;49.176;16.626;2023-11-21T13:08:02;8.55;;;5.20;;
75680;SDS011;64294;49.176;16.626;2023-11-21T13:10:31;15.73;;;6.70;;
75680;SDS011;64294;49.176;16.626;2023-11-21T13:12:58;13.20;;;5.97;;
75680;SDS011;64294;49.176;16.626;2023-11-21T13:15:24;13.30;;;6.03;;
75680;SDS011;64294;49.176;16.626;2023-11-21T13:17:51;12.70;;;5.97;;
75680;SDS011;64294;49.176;16.626;2023-11-21T13:20:18;11.60;;;5.35;;
75680;SDS011;64294;49.176;16.626;2023-11-21T13:22:48;13.98;;;5.07;;
75680;SDS011;64294;49.176;16.626;2023-11-21T13:25:16;11.95;;;5.13;;
75680;SDS011;64294;49.176;16.626;2023-11-21T13:27:45;7.43;;;4.38;;
75680;SDS011;64294;49.176;16.626;2023-11-21T13:30:11;7.55;;;3.80;;
75680;SDS011;64294;49.176;16.626;2023-11-21T13:32:40;10.38;;;4.38;;
75680;SDS011;64294;49.176;16.626;2023-11-21T13:35:09;6.53;;;3.13;;
75680;SDS011;64294;49.176;16.626;2023-11-21T13:37:46;6.80;;;3.30;;
75680;SDS011;64294;49.176;16.626;2023-11-21T13:40:14;8.82;;;4.10;;
75680;SDS011;64294;49.176;16.626;2023-11-21T13:42:44;7.15;;;3.45;;
75680;SDS011;64294;49.176;16.626;2023-11-21T13:45:10;12.07;;;3.42;;
75680;SDS011;64294;49.176;16.626;2023-11-21T13:47:40;8.35;;;3.75;;
75680;SDS011;64294;49.176;16.626;2023-11-21T13:50:06;18.42;;;8.80;;
75680;SDS011;64294;49.176;16.626;2023-11-21T13:52:42;14.15;;;5.97;;
75680;SDS011;64294;49.176;16.626;2023-11-21T13:55:09;18.17;;;7.93;;
75680;SDS011;64294;49.176;16.626;2023-11-21T13:57:40;7.25;;;3.92;;
75680;SDS011;64294;49.176;16.626;2023-11-21T14:00:10;12.32;;;5.60;;
75680;SDS011;64294;49.176;16.626;2023-11-21T14:02:56;10.35;;;6.40;;
75680;SDS011;64294;49.176;16.626;2023-11-21T14:05:34;8.63;;;4.30;;
75680;SDS011;64294;49.176;16.626;2023-11-21T14:08:00;9.95;;;5.40;;
75680;SDS011;64294;49.176;16.626;2023-11-21T14:10:30;17.75;;;10.38;;
75680;SDS011;64294;49.176;16.626;2023-11-21T14:13:05;23.90;;;13.68;;
75680;SDS011;64294;49.176;16.626;2023-11-21T14:15:31;34.60;;;16.95;;
75680;SDS011;64294;49.176;16.626;2023-11-21T14:17:58;20.77;;;13.15;;
75680;SDS011;64294;49.176;16.626;2023-11-21T14:20:31;17.03;;;9.70;;
75680;SDS011;64294;49.176;16.626;2023-11-21T14:22:58;9.52;;;5.03;;
75680;SDS011;64294;49.176;16.626;2023-11-21T14:25:23;11.13;;;5.32;;
75680;SDS011;64294;49.176;16.626;2023-11-21T14:27:49;5.78;;;3.05;;
75680;SDS011;64294;49.176;16.626;2023-11-21T14:30:15;9.07;;;4.78;;
75680;SDS011;64294;49.176;16.626;2023-11-21T14:32:44;7.90;;;3.53;;
75680;SDS011;64294;49.176;16.626;2023-11-21T14:35:09;6.80;;;3.33;;
75680;SDS011;64294;49.176;16.626;2023-11-21T14:37:35;6.88;;;3.10;;
75680;SDS011;64294;49.176;16.626;2023-11-21T14:40:01;12.95;;;3.75;;